Tiempo atmosférico en la estación meteorológica de Calamocha, Teruel (890 m.)



Fecha
DESCASC
Temp. máxima en grados centígrados (hora)
DESCASC
Temp. mínima en grados centígrados (hora)
DESCASC
Temp. media en grados centígrados
DESCASC
Racha de viento máxima en m/sg (hora)
DESCASC
Velocidad máxima media en intervalos de 10 minutos(hora)
DESCASC
Precipitaciones diarias en mm
DESCASC
Precipitaciones de 00:00 a 06:00 en mm
DESCASC
Precipitaciones de 06:00 a 12:00 en mm
DESCASC
Precipitaciones de 12:00 a 18:00 en mm
DESCASC
Precipitaciones de 18:00 a 24:00 en mm
DESCASC
18-08-2019 35.7 (16:30) 18.1 (07:40) 26.9 11.67 (13:40) 5.83 (13:40) 0 0 0 0 0
17-08-2019 35.8 (17:30) 16.7 (07:30) 26.3 8.61 (14:40) 4.17 (14:50) 0 0 0 0 0
16-08-2019 34 (16:20) 13.7 (07:10) 23.8 9.17 (19:30) 6.39 (20:50) 0 0 0 0 0
15-08-2019 30.5 (17:50) 14.2 (00:00) 22.3 8.61 (16:50) 4.44 (19:40) 0 0 0 0 0
14-08-2019 31.3 (17:30) 8.2 (00:00) 19.7 5.83 (21:10) 2.5 (20:50) 0 0 0 0 0
13-08-2019 26.5 (17:40) 11.9 (00:00) 19.2 8.06 (18:20) 3.61 (19:20) 0 0 0 0 0
12-08-2019 24.3 (14:40) 12 (00:00) 18.1 11.39 (20:20) 6.11 (20:10) 0 0 0 0 0
11-08-2019 31.1 (17:50) 16.6 (00:00) 23.9 11.94 (15:20) 5 (15:20) 0 0 0 0 0
10-08-2019 33.6 (16:50) 14.9 (00:00) 24.2 10 (19:40) 6.67 (20:00) 0 0 0 0 0
09-08-2019 33.4 (17:20) 18 (00:00) 25.7 12.22 (18:20) 6.39 (10:40) 0 0 0 0 0
08-08-2019 34 (17:00) 14.7 (00:00) 24.3 12.22 (17:00) 4.17 (19:20) 0 0 0 0 0
07-08-2019 28.5 (15:10) 17.2 (00:00) 22.9 8.61 (16:40) 3.89 (16:20) 0 0 0 0 0
06-08-2019 35.8 (17:50) 16.1 (00:00) 25.9 8.89 (12:30) 4.17 (12:40) 0 0 0 0 0
05-08-2019 37 (16:40) 14.7 (00:00) 25.8 11.11 (18:40) 7.78 (18:40) 0 0 0 0 0
04-08-2019 36.1 (16:00) 17 (00:00) 26.5 9.72 (18:10) 6.67 (18:40) 0 0 0 0 0
03-08-2019 34.6 (15:50) 14.5 (00:00) 24.5 11.67 (18:40) 8.33 (18:40) 0 0 0 0 0
02-08-2019 33 (16:40) 15.4 (00:00) 24.2 8.33 (18:50) 5 (20:40) 0 0 0 0 0
01-08-2019 34.1 (17:30) 15.3 (00:00) 24.7 9.17 (19:20) 6.39 (19:20) 0 0 0 0 0
31-07-2019 31.8 (17:30) 11.7 (00:00) 21.7 10.28 (17:10) 6.11 (17:10) 0 0 0 0 0
30-07-2019 26.9 (15:30) 12.3 (00:00) 19.6 8.89 (22:00) 4.72 (22:00) 0 0 0 0 0
29-07-2019 33.2 (17:30) 11.7 (00:00) 22.5 9.44 (15:10) 4.17 (13:40) 0 0 0 0 0
28-07-2019 27 (18:30) 9.5 (00:00) 18.3 6.39 (11:10) 2.78 (00:40) 0 0 0 0 0
27-07-2019 25.6 (15:50) 14.8 (00:00) 20.2 10.28 (19:00) 5.56 (19:00) 0 0 0 0 0
26-07-2019 29.7 (15:10) 17 (00:00) 23.4 14.17 (17:50) 6.94 (18:20) 0 0 0 0 0
25-07-2019 34.8 (17:10) 16.1 (00:00) 25.4 12.5 (14:00) 7.78 (19:10) 0.2 0 0 0 0.2
24-07-2019 37.1 (17:00) 17.8 (00:00) 27.4 9.44 (19:10) 5 (19:20) 0 0 0 0 0
23-07-2019 37.4 (17:00) 15.5 (00:00) 26.5 11.67 (14:00) 5.56 (14:20) 0 0 0 0 0
22-07-2019 36.4 (16:40) 16.6 (00:00) 26.5 11.11 (19:10) 5.28 (18:00) 0 0 0 0 0
21-07-2019 36 (16:20) 18.4 (00:00) 27.2 9.72 (01:10) 4.44 (01:10) 0 0 0 0 0

Gráficas

Temp. máximas Temp. mínimas Temp. medias Precipitaciones Rachas de viento máximas Velocidades máximas media en intervalos de 10 minutos

Datos horarios

Fecha y hora oficial Temperatura (ºC) Velocidad del viento (km/h) Dirección del viento Racha (km/h) Dirección de racha Precipitación (mm) Presión (hPa) Tendencia (hPa) Humedad (%)
2019-08-19 23:00:00 18.3 5 Noroeste 16 Norte 0 917.8 1.5 62
2019-08-19 22:00:00 19.6 4 Noroeste 17 Norte 0 917.2 1.2 57
2019-08-19 21:00:00 21.4 7 Noroeste 19 Nordeste 0 916.6 0.7 52
2019-08-19 20:00:00 23 7 Norte 19 Norte 0 916.3 0.7 48
2019-08-19 19:00:00 24.8 10 Norte 30 Este 0 916 0.5 44
2019-08-19 18:00:00 26.3 14 Nordeste 37 Este 0 915.9 0.3 41
2019-08-19 17:00:00 27.9 16 Este 33 Este 0 915.6 -0.4 38
2019-08-19 16:00:00 29.4 22 Este 37 Este 0 915.5 -0.9 34
2019-08-19 15:00:00 29.9 10 Norte 27 Noroeste 0 915.6 -1.1 34
2019-08-19 14:00:00 28.4 8 Noroeste 24 Noroeste 0 916 -1 39
2019-08-19 13:00:00 26.2 8 Noroeste 20 Noroeste 0 916.4 -0.8 46
2019-08-19 12:00:00 24.4 8 Noroeste 17 Norte 0 916.7 -0.5 51
2019-08-19 11:00:00 22.6 4 Noroeste 13 Noroeste 0 917 -0.2 56
2019-08-19 10:00:00 19.4 4 Noroeste 8 Noroeste 0 917.2 0.5 64
2019-08-19 09:00:00 17.6 3 Norte 14 Norte 0 917.2 1 72
2019-08-19 08:00:00 14.7 4 Norte 12 Nordeste 0 917.2 1.1 83
2019-08-19 07:00:00 14.5 5 Norte 10 Norte 0 916.7 0.4 84
2019-08-19 06:00:00 14.7 5 Noroeste 15 Noroeste 0 916.2 -0.2 85
2019-08-19 05:00:00 15.2 5 Norte 15 Norte 0 916.1 -0.1 84
2019-08-19 04:00:00 15.8 5 Norte 14 Noroeste 0 916.3 0.4 84
2019-08-19 03:00:00 16.9 5 Norte 16 Noroeste 0 916.4 0.8 80
2019-08-19 02:00:00 18.1 5 Norte 11 Norte 0 916.2 1.4 76
2019-08-19 01:00:00 19.1 4 Norte 10 Noroeste 0 915.9 2.4 72
2019-08-19 00:00:00 21.2 5 Norte 18 Norte 0 915.6 3.1 64
2019-08-18 23:00:00 23.7 6 Norte 31 Norte 0 914.8 2.5 52
2019-08-18 22:00:00 27.3 7 Noroeste 18 Sudoeste 0 913.5 1 20
2019-08-18 21:00:00 30.2 7 Oeste 23 Oeste 0 912.5 0 16
2019-08-18 20:00:00 32.1 7 Noroeste 27 Noroeste 0 912.3 -0.2 16
2019-08-18 19:00:00 33.2 10 Oeste 30 Noroeste 0 912.5 -0.3 17
2019-08-18 18:00:00 33.6 13 Oeste 39 Oeste 0 912.5 -0.8 16
2019-08-18 17:00:00 35.4 14 Oeste 36 Sudoeste 0 912.5 -1.2 15
2019-08-18 16:00:00 35.1 17 Oeste 39 Sudoeste 0 912.8 -1.3 16
2019-08-18 15:00:00 34.2 16 Oeste 35 Oeste 0 913.3 -0.9 19
2019-08-18 14:00:00 33.6 17 Oeste 42 Sudoeste 0 913.7 -0.7 20
2019-08-18 13:00:00 32.6 17 Oeste 40 Sudoeste 0 914.1 -0.3 21
2019-08-18 12:00:00 31.9 16 Oeste 33 Oeste 0 914.2 -0.2 22
2019-08-18 11:00:00 29.3 4 Sur 16 Sudoeste 0 914.4 0.5 35
2019-08-18 10:00:00 25.5 10 Sudoeste 19 Sudoeste 0 914.4 0.9 46
2019-08-18 09:00:00 22.9 5 Sur 9 Sudeste 0 914.4 0.9 56
2019-08-18 08:00:00 18.6 5 Sudeste 6 Sudeste 0 913.9 0.1 67
2019-08-18 07:00:00 18.7 6 Sur 7 Sur 0 913.5 -0.6 66
2019-08-18 06:00:00 19.9 4 Sudeste 11 Este 0 913.5 -0.9 64
2019-08-18 05:00:00 20.9 6 Sudeste 12 Sudeste 0 913.8 -0.9 59
2019-08-18 04:00:00 21.9 9 Sudeste 13 Sudeste 0 914.1 -0.6 57
2019-08-18 03:00:00 22.4 6 Sudeste 12 Sudeste 0 914.4 -0.1 53
2019-08-18 02:00:00 21.3 2 Norte 9 Sudeste 0 914.7 0.3 51
2019-08-18 01:00:00 23 7 Sudeste 12 Este 0 914.7 0.8 43
2019-08-18 00:00:00 23.7 3 Oeste 11 Sudoeste 0 914.5 1 33
2019-08-17 23:00:00 26 4 Oeste 13 Este 0 914.4 0.9 33
2019-08-17 22:00:00 28.6 4 Sur 13 Oeste 0 913.9 0.2 21
2019-08-17 21:00:00 31.1 5 Oeste 24 Noroeste 0 913.5 -0.7 18
2019-08-17 20:00:00 33.6 7 Oeste 21 Oeste 0 913.5 -1.1 16
2019-08-17 19:00:00 35.2 7 Oeste 20 Oeste 0 913.7 -1.4 17
2019-08-17 18:00:00 35.6 9 Noroeste 30 Oeste 0 914.2 -1.4 15
2019-08-17 17:00:00 35.2 13 Oeste 30 Oeste 0 914.6 -1.4 16
2019-08-17 16:00:00 34.9 10 Oeste 29 Sudoeste 0 915.1 -1.7 18
2019-08-17 15:00:00 34.5 12 Oeste 31 Sudoeste 0 915.6 -1.8 18
2019-08-17 14:00:00 33.7 7 Este 20 Sudeste 0 916 -1.7 23
2019-08-17 13:00:00 31.5 4 Norte 12 Norte 0 916.8 -1 31
2019-08-17 12:00:00 29.4 3 Sudoeste 11 Sudeste 0 917.4 -0.3 42
2019-08-17 11:00:00 26.6 4 Sudeste 9 Este 0 917.7 0.3 51
2019-08-17 10:00:00 23.4 5 Sur 10 Sudeste 0 917.8 0.6 62
2019-08-17 09:00:00 21 5 Sur 12 Sur 0 917.7 0.9 73
2019-08-17 08:00:00 17.5 5 Sudeste 12 Sudeste 0 917.4 0.4 85
2019-08-17 07:00:00 17.4 2 Noroeste 11 Sudeste 0 917.2 0.2 85
2019-08-17 06:00:00 18.9 8 Sudeste 13 Sudeste 0 916.8 -0.3 79
2019-08-17 05:00:00 19.3 7 Sudeste 12 Sudeste 0 917 -0.3 76
2019-08-17 04:00:00 19.7 4 Sudeste 10 Sudeste 0 917 -0.4 75
2019-08-17 03:00:00 20.4 5 Sudeste 9 Sudeste 0 917.1 -0.1 71
2019-08-17 02:00:00 21.3 5 Sudeste 9 Sur 0 917.3 0.2 69
2019-08-17 01:00:00 22.6 6 Sudeste 12 Sudeste 0 917.4 0.8 66
2019-08-17 00:00:00 23.9 7 Sudeste 16 Sudeste 0 917.2 1.3 51
2019-08-16 23:00:00 24.6 3 Oeste 12 Este 0 917.1 1.5 46
2019-08-16 22:00:00 26.5 14 Este 31 Este 0 916.6 1.2 38
2019-08-16 21:00:00 28 22 Este 33 Este 0 915.9 0.2 35
2019-08-16 20:00:00 29.8 22 Este 33 Sudeste 0 915.6 -0.4 32
2019-08-16 19:00:00 31.3 19 Este 28 Este 0 915.4 -0.9 29
2019-08-16 18:00:00 31.9 8 Nordeste 27 Norte 0 915.7 -1.4 29
2019-08-16 17:00:00 31.4 8 Nordeste 25 Norte 0 916 -1.8 29
2019-08-16 16:00:00 32.6 6 Sudoeste 14 Oeste 0 916.3 -2.1 29
2019-08-16 15:00:00 32.7 8 Sudoeste 19 Sudoeste 0 917.1 -1.8 28
2019-08-16 14:00:00 31.4 4 Noroeste 13 Este 0 917.8 -1.4 32
2019-08-16 13:00:00 29.6 4 Norte 12 Oeste 0 918.4 -1.1 40
2019-08-16 12:00:00 27.1 4 Este 8 Sudoeste 0 918.9 -0.7 43
2019-08-16 11:00:00 24.7 3 Sudoeste 9 Este 0 919.2 -0.3 52
2019-08-16 10:00:00 21.5 3 Sur 10 Sudeste 0 919.5 0.2 54
2019-08-16 09:00:00 18.9 5 Sur 11 Sudeste 0 919.6 0.2 59
2019-08-16 08:00:00 14.7 4 Sur 9 Sur 0 919.5 -0.1 71
2019-08-16 07:00:00 13.8 5 Sudeste 6 Sudeste 0 919.3 -0.5 71
2019-08-16 06:00:00 14.3 3 Sudoeste 7 Sur 0 919.4 -0.8 75
2019-08-16 05:00:00 14.9 4 Sudeste 6 Sudeste 0 919.6 -1.3 69
2019-08-16 04:00:00 15.5 0 Calma 7 Norte 0 919.8 -1.1 73
2019-08-16 03:00:00 16.3 3 Norte 6 Este 0 920.2 -0.9 68
2019-08-16 02:00:00 17 0 Calma 6 Sudeste 0 920.9 -0.1 67
2019-08-16 01:00:00 17.9 2 Norte 8 Norte 0 920.9 0.5 60
2019-08-16 00:00:00 18.7 3 Norte 14 Nordeste 0 921.1 1.8 58
2019-08-15 23:00:00 19.9 8 Norte 19 Norte 0 921 2.5 53
2019-08-15 22:00:00 21.2 8 Norte 24 Nordeste 0 920.4 2.4 49
2019-08-15 21:00:00 23.3 10 Norte 26 Norte 0 919.3 1.2 46
2019-08-15 20:00:00 26.6 15 Norte 28 Nordeste 0 918.5 0 38
2019-08-15 19:00:00 29.2 9 Norte 20 Nordeste 0 918 -0.7 38
2019-08-15 18:00:00 30.2 7 Norte 21 Nordeste 0 918.1 -0.9 38
2019-08-15 17:00:00 29.6 10 Norte 31 Norte 0 918.5 -1 37
2019-08-15 16:00:00 30 8 Norte 25 Norte 0 918.7 -1.3 34
2019-08-15 15:00:00 29.6 6 Norte 26 Nordeste 0 919 -1.6 39
2019-08-15 14:00:00 29.1 6 Noroeste 18 Noroeste 0 919.5 -1.4 41
2019-08-15 13:00:00 27.4 5 Noroeste 14 Noroeste 0 920 -0.9 47
2019-08-15 12:00:00 25.1 6 Noroeste 14 Norte 0 920.6 -0.5 53
2019-08-15 11:00:00 22.9 5 Norte 14 Norte 0 920.9 0.2 56
2019-08-15 10:00:00 20.8 5 Norte 20 Norte 0 920.9 0.8 67
2019-08-15 09:00:00 18.8 6 Norte 17 Norte 0 921.1 0.9 74
2019-08-15 08:00:00 15.5 4 Nordeste 10 Nordeste 0 920.7 0.7 81
2019-08-15 07:00:00 14.8 3 Nordeste 11 Norte 0 920.1 0.1 83
2019-08-15 06:00:00 14.3 3 Norte 8 Norte 0 920.2 0 84
2019-08-15 05:00:00 14.7 2 Norte 4 Norte 0 920 -0.6 75
2019-08-15 04:00:00 15.9 2 Noroeste 4 Norte 0 920 -0.6 68
2019-08-15 03:00:00 17.2 2 Norte 7 Noroeste 0 920.2 -0.3 63
2019-08-15 02:00:00 18.4 3 Noroeste 16 Noroeste 0 920.6 0.7 60
2019-08-15 01:00:00 19.7 5 Noroeste 11 Noroeste 0 920.6 1.4 55
2019-08-15 00:00:00 20.9 5 Norte 15 Nordeste 0 920.5 2.3 50
2019-08-14 23:00:00 21.6 4 Norte 15 Nordeste 0 919.9 2.1 39
2019-08-14 22:00:00 23.7 8 Norte 21 Norte 0 919.2 1.4 33
2019-08-14 21:00:00 26.8 9 Nordeste 20 Nordeste 0 918.2 0.2 25
2019-08-14 20:00:00 29.9 5 Norte 13 Noroeste 0 917.8 -0.6 21
2019-08-14 19:00:00 31 4 Noroeste 14 Noroeste 0 917.8 -1.2 23
2019-08-14 18:00:00 30 6 Norte 19 Norte 0 918 -1.5 20
2019-08-14 17:00:00 30.8 6 Norte 14 Norte 0 918.4 -1.5 20
2019-08-14 16:00:00 29.2 5 Norte 19 Noroeste 0 919 -1.3 20
2019-08-14 15:00:00 28.6 5 Norte 15 Norte 0 919.5 -1.1 24
2019-08-14 14:00:00 27.1 6 Nordeste 16 Norte 0 919.9 -1 23
2019-08-14 13:00:00 26.3 4 Noroeste 12 Norte 0 920.3 -0.8 26
2019-08-14 12:00:00 23 4 Nordeste 10 Sur 0 920.6 -0.3 42
2019-08-14 11:00:00 20.7 5 Sudeste 14 Este 0 920.9 0 52
2019-08-14 10:00:00 17.4 4 Sur 12 Sur 0 921.1 0.4 54
2019-08-14 09:00:00 13.1 4 Sur 9 Sur 0 920.9 0.4 65
2019-08-14 08:00:00 8.9 0 Calma 5 Sudeste 0 920.9 0.2 79
2019-08-14 07:00:00 8.3 0 Calma 3 Nordeste 0 920.7 -0.2 82
2019-08-14 06:00:00 9.4 0 Calma 8 Sudoeste 0 920.5 -0.6 73
2019-08-14 05:00:00 10.4 0 Calma 8 Sudeste 0 920.7 -0.4 75
2019-08-14 04:00:00 11.1 3 Sur 6 Sur 0 920.9 -0.1 67
2019-08-14 03:00:00 11.7 0 Calma 4 Norte 0 921.1 0.2 73
2019-08-14 02:00:00 12.7 2 Noroeste 3 Noroeste 0 921.1 0.5 68
2019-08-14 01:00:00 13.9 2 Nordeste 6 Norte 0 921 1.2 61
2019-08-14 00:00:00 15.8 3 Norte 14 Norte 0 920.9 2 57
2019-08-13 23:00:00 17 5 Norte 16 Nordeste 0 920.6 2.1 51
2019-08-13 22:00:00 18.5 7 Norte 17 Norte 0 919.8 1.5 46
2019-08-13 21:00:00 20.8 12 Norte 24 Norte 0 918.9 0.9 38
2019-08-13 20:00:00 23.1 11 Nordeste 26 Norte 0 918.5 0.4 32
2019-08-13 19:00:00 24.6 11 Norte 29 Este 0 918.3 -0.3 27
2019-08-13 18:00:00 26.2 9 Norte 18 Norte 0 918 -1.1 26
2019-08-13 17:00:00 25.9 6 Norte 21 Noroeste 0 918.1 -1.7 29
2019-08-13 16:00:00 25.4 10 Norte 23 Norte 0 918.6 -1.5 31
2019-08-13 15:00:00 24.4 7 Norte 24 Norte 0 919.1 -1.4 35
2019-08-13 14:00:00 23.8 6 Noroeste 17 Norte 0 919.8 -1.1 39
2019-08-13 13:00:00 22.1 7 Noroeste 15 Norte 0 920.1 -0.9 40
2019-08-13 12:00:00 20 6 Noroeste 17 Norte 0 920.5 -0.5 41
2019-08-13 11:00:00 17.8 4 Oeste 8 Noroeste 0 920.9 0 49
2019-08-13 10:00:00 16.2 4 Sudoeste 12 Oeste 0 921 0.3 55
2019-08-13 09:00:00 13.2 3 Oeste 5 Oeste 0 921 0.2 64
2019-08-13 08:00:00 12.1 2 Noroeste 5 Noroeste 0 920.9 0.1 72
2019-08-13 07:00:00 11.9 2 Noroeste 8 Norte 0 920.7 -0.6 70
2019-08-13 06:00:00 12.5 4 Norte 10 Norte 0 920.8 -0.7 67
2019-08-13 05:00:00 12.6 7 Norte 16 Norte 0 920.8 -1.1 67
2019-08-13 04:00:00 12.4 4 Norte 12 Nordeste 0 921.3 -0.3 66
2019-08-13 03:00:00 12.2 4 Nordeste 7 Este 0 921.5 0 68
2019-08-13 02:00:00 12.3 5 Nordeste 13 Norte 0 921.9 0.7 67
2019-08-13 01:00:00 12.8 6 Norte 17 Norte 0 921.6 1.2 69
2019-08-13 00:00:00 13.7 7 Norte 23 Norte 0 921.5 2.3 65
2019-08-12 23:00:00 14.4 8 Norte 27 Norte 0 921.2 2.9 62
2019-08-12 22:00:00 15.6 12 Norte 37 Norte 0 920.4 2.3 58
2019-08-12 21:00:00 17.3 14 Norte 41 Nordeste 0 919.2 1.2 51
2019-08-12 20:00:00 20 15 Norte 37 Nordeste 0 918.3 0.3 39
2019-08-12 19:00:00 21.5 18 Norte 36 Nordeste 0 918.1 -0.2 36
2019-08-12 18:00:00 22.8 15 Norte 32 Norte 0 918 -0.5 35
2019-08-12 17:00:00 24.1 8 Norte 33 Nordeste 0 918 -0.7 32
2019-08-12 16:00:00 22.6 10 Nordeste 28 Nordeste 0 918.3 -0.6 35
2019-08-12 15:00:00 23.2 12 Norte 27 Norte 0 918.5 -0.9 35
2019-08-12 14:00:00 23.2 6 Noroeste 19 Noroeste 0 918.7 -0.6 36
2019-08-12 13:00:00 21.5 8 Norte 18 Norte 0 918.9 0 42
2019-08-12 12:00:00 20.3 6 Noroeste 21 Noroeste 0 919.4 0.7 50
2019-08-12 11:00:00 18.8 7 Norte 18 Norte 0 919.3 1.1 55
2019-08-12 10:00:00 16.9 4 Noroeste 12 Noroeste 0 918.9 1.3 61
2019-08-12 09:00:00 15.9 3 Noroeste 8 Norte 0 918.7 1.6 67
2019-08-12 08:00:00 12.9 2 Nordeste 5 Norte 0 918.2 1.3 79
2019-08-12 07:00:00 12.6 3 Norte 9 Nordeste 0 917.6 0.3 82
2019-08-12 06:00:00 13.2 5 Nordeste 10 Norte 0 917.1 0 81
2019-08-12 05:00:00 13.9 3 Norte 6 Norte 0 916.9 -0.4 77
2019-08-12 04:00:00 14.9 4 Noroeste 12 Norte 0 917.3 -0.1 74
2019-08-12 03:00:00 15.5 4 Norte 11 Oeste 0 917.1 -0.2 70
2019-08-12 02:00:00 16.3 6 Norte 19 Norte 0 917.3 0.5 66
2019-08-12 01:00:00 16.7 6 Norte 20 Norte 0 917.4 1.4 64
2019-08-12 00:00:00 17.6 6 Norte 25 Norte 0 917.3 2.1 62
2019-08-11 23:00:00 19.2 9 Norte 33 Norte 0 916.8 2.6 58
2019-08-11 22:00:00 21 12 Norte 23 Nordeste 0 916 2 50
2019-08-11 21:00:00 23.5 10 Norte 27 Nordeste 0 915.2 1.4 44
2019-08-11 20:00:00 26.2 14 Nordeste 26 Oeste 0 914.2 0.3 38
2019-08-11 19:00:00 29.3 13 Oeste 31 Oeste 0 914 -0.2 18
2019-08-11 18:00:00 30.9 10 Oeste 36 Oeste 0 913.8 -0.7 17
2019-08-11 17:00:00 30.7 16 Oeste 41 Oeste 0 913.9 -1.1 18
2019-08-11 16:00:00 30 13 Oeste 43 Oeste 0 914.2 -1.6 21
2019-08-11 15:00:00 29.6 15 Oeste 36 Oeste 0 914.5 -1.7 21
2019-08-11 14:00:00 28.6 7 Noroeste 17 Noroeste 0 915 -1.5 34
2019-08-11 13:00:00 27.2 4 Noroeste 14 Norte 0 915.8 -0.6 41
2019-08-11 12:00:00 24 5 Norte 11 Noroeste 0 916.2 -0.8 53
2019-08-11 11:00:00 22.2 4 Noroeste 14 Norte 0 916.5 0.7 58
2019-08-11 10:00:00 20.5 7 Nordeste 20 Nordeste 0 916.4 1.2 61
2019-08-11 09:00:00 19.2 10 Norte 24 Norte 0 917 1.8 69
2019-08-11 08:00:00 18.4 2 Nordeste 5 Nordeste 0 915.8 0.7 77
2019-08-11 07:00:00 17.6 4 Sur 10 Sudeste 0 915.2 -0.2 78
2019-08-11 06:00:00 16.6 3 Norte 6 Sudeste 0 915.2 -0.6 74
2019-08-11 05:00:00 17.6 2 Nordeste 6 Norte 0 915.1 -1.3 69
2019-08-11 04:00:00 18.7 0 Calma 8 Norte 0 915.4 -1.6 62
2019-08-11 03:00:00 19.5 3 Oeste 7 Noroeste 0 915.8 -1.4 62
2019-08-11 02:00:00 20.8 5 Norte 9 Noroeste 0 916.4 -0.9 56
2019-08-11 01:00:00 21.8 3 Norte 10 Noroeste 0 917 0 52
2019-08-11 00:00:00 22.2 3 Oeste 15 Norte 0 917.2 0.9 52
2019-08-10 23:00:00 23.7 5 Norte 17 Este 0 917.3 1.3 48
2019-08-10 22:00:00 25.8 9 Nordeste 31 Este 0 917 1 42
2019-08-10 21:00:00 27.4 15 Este 34 Este 0 916.3 0.3 39
2019-08-10 20:00:00 28.9 24 Este 36 Este 0 916 0 36
2019-08-10 19:00:00 29.9 19 Nordeste 35 Nordeste 0 916 -0.6 34
2019-08-10 18:00:00 31.4 11 Norte 32 Este 0 916 -1.5 33
2019-08-10 17:00:00 32.9 4 Noroeste 19 Noroeste 0 916 -2.2 29
2019-08-10 16:00:00 33.3 5 Sudoeste 18 Este 0 916.6 -2.3 31
2019-08-10 15:00:00 31.2 6 Sudeste 18 Sudeste 0 917.5 -1.9 33
2019-08-10 14:00:00 29 4 Noroeste 15 Nordeste 0 918.2 -1.5 39
2019-08-10 13:00:00 27.3 4 Norte 14 Noroeste 0 918.9 -1 44
2019-08-10 12:00:00 25.9 5 Noroeste 12 Noroeste 0 919.4 -0.5 51
2019-08-10 11:00:00 23.5 4 Sudeste 9 Este 0 919.7 0 54
2019-08-10 10:00:00 21.7 2 Oeste 5 Sudoeste 0 919.9 0.9 59
2019-08-10 09:00:00 19.5 3 Sudeste 6 Sudeste 0 919.9 1.4 65
2019-08-10 08:00:00 16.1 4 Sudeste 5 Sudeste 0 919.7 1.5 77
2019-08-10 07:00:00 15.2 3 Oeste 6 Oeste 0 919 0.8 82
2019-08-10 06:00:00 15.8 2 Norte 3 Noroeste 0 918.5 0.6 79
2019-08-10 05:00:00 16.5 2 Sur 5 Noroeste 0 918.2 0 76
2019-08-10 04:00:00 17.3 3 Nordeste 6 Norte 0 918.2 -0.3 74
2019-08-10 03:00:00 18.5 2 Nordeste 11 Sudeste 0 917.9 -0.7 69
2019-08-10 02:00:00 19.4 4 Sudeste 13 Sudeste 0 918.2 0.5 62
2019-08-10 01:00:00 20.2 4 Sudeste 14 Norte 0 918.5 2 60
2019-08-10 00:00:00 21.4 3 Noroeste 30 Noroeste 0 918.6 3.1 58
2019-08-09 23:00:00 23.1 12 Norte 31 Noroeste 0 917.7 2.8 61
2019-08-09 22:00:00 28.3 9 Oeste 30 Noroeste 0 916.5 1.8 38
2019-08-09 21:00:00 29.7 13 Oeste 33 Oeste 0 915.5 1 34
2019-08-09 20:00:00 31.6 16 Sudoeste 39 Oeste 0 914.9 0.1 31
2019-08-09 19:00:00 32.5 19 Oeste 44 Oeste 0 914.7 -0.7 28
2019-08-09 18:00:00 33.3 14 Oeste 35 Oeste 0 914.5 -1 26
2019-08-09 17:00:00 33.2 12 Oeste 40 Oeste 0 914.8 -1 29
2019-08-09 16:00:00 32.8 14 Oeste 37 Oeste 0 915.4 -0.7 29
2019-08-09 15:00:00 32.5 12 Oeste 40 Oeste 0 915.5 -0.8 29
2019-08-09 14:00:00 32 15 Sudoeste 35 Oeste 0 915.8 -0.1 29
2019-08-09 13:00:00 30.7 16 Oeste 37 Oeste 0 916.1 0.5 30
2019-08-09 12:00:00 29.5 13 Oeste 33 Oeste 0 916.3 0.6 33
2019-08-09 11:00:00 28.1 19 Sudoeste 40 Sudoeste 0 915.9 0.2 37
2019-08-09 10:00:00 26.4 12 Oeste 28 Oeste 0 915.6 0.2 45
2019-08-09 09:00:00 23.3 6 Sur 14 Sudeste 0 915.7 0.6 47
2019-08-09 08:00:00 19.6 5 Sudeste 15 Sur 0 915.7 0.3 56
2019-08-09 07:00:00 18.1 11 Sur 16 Sur 0 915.4 0.2 58
2019-08-09 06:00:00 18.5 9 Sudeste 12 Sudeste 0 915.1 -0.3 57
2019-08-09 05:00:00 19.1 8 Sudeste 10 Sur 0 915.4 0.1 55
2019-08-09 04:00:00 20.9 8 Sur 16 Sur 0 915.2 0.2 50
2019-08-09 03:00:00 20.7 5 Sudeste 10 Sudeste 0 915.4 0.7 55
2019-08-09 02:00:00 22.2 6 Sudeste 13 Sur 0 915.3 0.6 46
2019-08-09 01:00:00 22.8 8 Sur 13 Sur 0 915 0.8 44
2019-08-09 00:00:00 24 5 Sur 10 Sur 0 914.7 1.1 41
2019-08-08 23:00:00 25.2 4 Sur 12 Sudeste 0 914.7 1.5 40
2019-08-08 22:00:00 28.2 4 Sudoeste 25 Oeste 0 914.2 1 32
2019-08-08 21:00:00 30.1 14 Oeste 24 Oeste 0 913.6 0.4 30
2019-08-08 20:00:00 32 8 Oeste 29 Sudoeste 0 913.2 -0.1 30
2019-08-08 19:00:00 33.4 8 Oeste 33 Oeste 0 913.2 -0.5 28
2019-08-08 18:00:00 33.5 12 Oeste 36 Oeste 0 913.2 -0.9 30
2019-08-08 17:00:00 33.9 11 Oeste 44 Oeste 0 913.3 -1.4 28
2019-08-08 16:00:00 33.3 14 Oeste 31 Oeste 0 913.7 -1.5 28
2019-08-08 15:00:00 32.6 11 Sudoeste 25 Oeste 0 914.1 -1.7 28
2019-08-08 14:00:00 31.5 9 Sur 17 Oeste 0 914.7 -1.3 30
2019-08-08 13:00:00 29.8 8 Sur 19 Sudeste 0 915.2 -0.9 31
2019-08-08 12:00:00 27.5 8 Sudoeste 16 Oeste 0 915.8 -0.3 36
2019-08-08 11:00:00 25 7 Sudoeste 11 Sudoeste 0 916 -0.1 45
2019-08-08 10:00:00 22.8 5 Este 8 Este 0 916.1 0.4 49
2019-08-08 09:00:00 19.5 3 Nordeste 6 Este 0 916.1 0.4 61
2019-08-08 08:00:00 15.9 3 Nordeste 5 Norte 0 916.1 0.5 71
2019-08-08 07:00:00 15 0 Calma 6 Sur 0 915.7 0.3 73
2019-08-08 06:00:00 15.9 2 Sudoeste 9 Sudoeste 0 915.7 0.3 69
2019-08-08 05:00:00 17.1 3 Sur 6 Sudeste 0 915.6 0.1 61
2019-08-08 04:00:00 17.8 5 Sur 8 Sur 0 915.4 -0.1 58
2019-08-08 03:00:00 18.2 4 Sur 7 Sur 0 915.4 0.3 56
2019-08-08 02:00:00 19.2 5 Sudeste 10 Sudeste 0 915.5 0.7 52
2019-08-08 01:00:00 21 7 Sudeste 12 Sudoeste 0 915.5 1.4 46
2019-08-08 00:00:00 22.7 5 Sudoeste 10 Sudoeste 0 915.1 1.5 43
2019-08-07 23:00:00 23.3 2 Sudeste 10 Oeste 0 914.8 0.9 42
2019-08-07 22:00:00 24.3 3 Noroeste 9 Noroeste 0 914.1 0 38
2019-08-07 21:00:00 25.5 5 Noroeste 10 Oeste 0 913.6 -0.5 36
2019-08-07 20:00:00 26.1 4 Oeste 12 Oeste 0 913.9 0 34
2019-08-07 19:00:00 26.7 5 Oeste 18 Oeste 0 914.1 0.2 33
2019-08-07 18:00:00 27.3 8 Noroeste 31 Sudoeste 0 914.1 0.6 33
2019-08-07 17:00:00 27.9 9 Oeste 31 Oeste 0 913.9 -0.4 31
2019-08-07 16:00:00 27.8 8 Oeste 21 Oeste 0 913.9 -0.2 31
2019-08-07 15:00:00 28.4 9 Oeste 26 Sudoeste 0 913.5 -0.5 31
2019-08-07 14:00:00 27 6 Noroeste 17 Norte 0 914.3 0.6 35
2019-08-07 13:00:00 26.8 6 Noroeste 20 Norte 0 914.1 0.5 37
2019-08-07 12:00:00 26.9 6 Noroeste 19 Noroeste 0 914 0.9 37
2019-08-07 11:00:00 26.9 9 Noroeste 20 Oeste 0 913.7 1.2 33
2019-08-07 10:00:00 25 3 Norte 9 Norte 0 913.6 1.9 37
2019-08-07 09:00:00 22.1 6 Nordeste 10 Nordeste 0 913.1 1.3 42
2019-08-07 08:00:00 17.6 0 Calma 6 Noroeste 0 912.5 0.6 54
2019-08-07 07:00:00 17.7 2 Nordeste 6 Sudeste 0 911.7 -0.5 51
2019-08-07 06:00:00 17.8 3 Nordeste 9 Sudeste 0 911.8 -0.4 50
2019-08-07 05:00:00 18.6 3 Sudeste 7 Sur 0 911.9 -0.4 47
2019-08-07 04:00:00 17.9 2 Oeste 5 Nordeste 0 912.2 -0.4 44
2019-08-07 03:00:00 18.5 2 Nordeste 5 Sur 0 912.2 -0.4 40
2019-08-07 02:00:00 19.7 0 Calma 6 Sudeste 0 912.3 0 36
2019-08-07 01:00:00 21.5 4 Sudeste 10 Sudeste 0 912.6 1 32
2019-08-07 00:00:00 23.4 3 Sudeste 13 Sur 0 912.6 1.3 24
2019-08-06 23:00:00 25 6 Sur 10 Sur 0 912.3 1.2 20
2019-08-06 22:00:00 28.5 5 Sudoeste 14 Oeste 0 911.6 0.3 16
2019-08-06 21:00:00 30.6 7 Oeste 20 Oeste 0 911.3 -0.3 14
2019-08-06 20:00:00 32.8 7 Oeste 24 Oeste 0 911.1 -1 14
2019-08-06 19:00:00 33.9 9 Oeste 22 Oeste 0 911.3 -1.5 15
2019-08-06 18:00:00 35.4 8 Noroeste 29 Sudoeste 0 911.6 -1.9 16
2019-08-06 17:00:00 35 10 Oeste 27 Oeste 0 912.1 -1.7 16
2019-08-06 16:00:00 34.1 6 Noroeste 27 Sudoeste 0 912.8 -1.1 19
2019-08-06 15:00:00 34.3 9 Noroeste 32 Oeste 0 913.5 -1.2 18
2019-08-06 14:00:00 33.5 13 Oeste 24 Sudoeste 0 913.8 -1.2 19
2019-08-06 13:00:00 31.9 9 Oeste 32 Sudoeste 0 913.9 -1.1 24
2019-08-06 12:00:00 30.6 6 Sudoeste 12 Sur 0 914.7 -0.1 28
2019-08-06 11:00:00 27.6 3 Noroeste 8 Noroeste 0 915 0.4 45
2019-08-06 10:00:00 24.4 3 Norte 6 Sudoeste 0 915 0.4 63
2019-08-06 09:00:00 22.4 5 Sudeste 8 Sur 0 914.8 0.2 69
2019-08-06 08:00:00 17 3 Sudeste 6 Sur 0 914.6 -0.2 78
2019-08-06 07:00:00 16.4 3 Oeste 5 Oeste 0 914.6 -0.3 80
2019-08-06 06:00:00 18.2 4 Oeste 12 Sudeste 0 914.6 -0.1 75
2019-08-06 05:00:00 19.5 10 Sudeste 12 Sudeste 0 914.8 -0.1 71
2019-08-06 04:00:00 19.5 5 Sudeste 8 Sudeste 0 914.9 0.1 66
2019-08-06 03:00:00 20.4 6 Sudeste 10 Sudeste 0 914.7 0.2 63
2019-08-06 02:00:00 21.8 6 Sudeste 12 Sudeste 0 914.9 0.6 59
2019-08-06 01:00:00 22.7 3 Sudeste 12 Sur 0 914.8 1.1 51
2019-08-06 00:00:00 24.6 6 Este 11 Este 0 914.5 1.5 54
2019-08-05 23:00:00 26.6 3 Este 15 Sudeste 0 914.3 1.6 47
2019-08-05 22:00:00 28.7 18 Este 36 Este 0 913.7 1 42
2019-08-05 21:00:00 30.1 19 Este 35 Este 0 913 0 38
2019-08-05 20:00:00 31.6 21 Este 39 Este 0 912.7 -0.5 36
2019-08-05 19:00:00 32.6 23 Este 40 Este 0 912.7 -1 34
2019-08-05 18:00:00 33.8 19 Este 34 Nordeste 0 913 -1.2 27
2019-08-05 17:00:00 36 8 Sudeste 24 Sur 0 913.2 -1.6 16
2019-08-05 16:00:00 36.2 7 Sur 34 Sur 0 913.7 -1.7 15
2019-08-05 15:00:00 35.3 8 Sudoeste 21 Sur 0 914.2 -1.8 18
2019-08-05 14:00:00 34.4 8 Sur 19 Sudeste 0 914.8 -1.5 19
2019-08-05 13:00:00 32.8 3 Oeste 7 Oeste 0 915.4 -1.3 26
2019-08-05 12:00:00 30.1 3 Oeste 8 Sudeste 0 916 -0.9 33
2019-08-05 11:00:00 26.3 3 Sudoeste 10 Sudeste 0 916.3 -0.4 51
2019-08-05 10:00:00 23.3 3 Sudoeste 7 Sudoeste 0 916.7 0.1 58
2019-08-05 09:00:00 19 0 Calma 5 Sur 0 916.9 0.6 71
2019-08-05 08:00:00 16 4 Sur 7 Sur 0 916.7 0.5 76
2019-08-05 07:00:00 14.8 2 Noroeste 5 Nordeste 0 916.6 0.3 83
2019-08-05 06:00:00 16 2 Sudoeste 5 Sudeste 0 916.3 -0.1 76
2019-08-05 05:00:00 17.3 3 Oeste 4 Oeste 0 916.2 -0.3 74
2019-08-05 04:00:00 18.4 2 Norte 6 Nordeste 0 916.3 0.1 70
2019-08-05 03:00:00 20.2 6 Sudeste 10 Este 0 916.4 0.6 61
2019-08-05 02:00:00 21.1 6 Noroeste 15 Sudoeste 0 916.5 1 59
2019-08-05 01:00:00 22.4 6 Sudeste 12 Sur 0 916.2 1.4 45
2019-08-05 00:00:00 24.3 5 Sur 11 Este 0 915.8 1.6 54
2019-08-04 23:00:00 26.4 4 Sur 21 Este 0 915.5 1.9 47
2019-08-04 22:00:00 28.2 13 Este 24 Este 0 914.8 1.6 40
2019-08-04 21:00:00 30.2 21 Este 34 Este 0 914.2 0.8 32
2019-08-04 20:00:00 32.3 17 Este 34 Este 0 913.6 0.1 30
2019-08-04 19:00:00 33.7 22 Este 35 Sudeste 0 913.2 -0.7 28
2019-08-04 18:00:00 34.1 11 Este 25 Este 0 913.4 -0.9 28
2019-08-04 17:00:00 34.6 4 Noroeste 16 Sudeste 0 913.5 -1.3 21
2019-08-04 16:00:00 35.9 7 Noroeste 14 Noroeste 0 913.9 -1.5 18
2019-08-04 15:00:00 35.2 9 Sudeste 19 Sur 0 914.3 -1.6 19
2019-08-04 14:00:00 33.6 7 Este 15 Nordeste 0 914.8 -1.3 22
2019-08-04 13:00:00 32.3 4 Sudoeste 8 Oeste 0 915.4 -0.8 30
2019-08-04 12:00:00 29.7 5 Nordeste 10 Nordeste 0 915.9 -0.3 34
2019-08-04 11:00:00 27.2 2 Oeste 6 Sudoeste 0 916.1 0.1 45
2019-08-04 10:00:00 24 4 Oeste 8 Oeste 0 916.2 0.6 59
2019-08-04 09:00:00 22.2 4 Sudoeste 7 Sur 0 916.2 0.8 62
2019-08-04 08:00:00 18.6 5 Sudeste 8 Sudeste 0 916 0.7 76
2019-08-04 07:00:00 17 3 Sur 5 Sudeste 0 915.6 0.3 80
2019-08-04 06:00:00 17.6 0 Calma 6 Sudeste 0 915.4 0.2 77
2019-08-04 05:00:00 18.2 3 Sudeste 6 Sur 0 915.3 0.1 73
2019-08-04 04:00:00 19.1 3 Este 6 Sudoeste 0 915.3 0.3 70
2019-08-04 03:00:00 19.9 3 Este 6 Este 0 915.2 0.3 65
2019-08-04 02:00:00 21.5 4 Sudeste 14 Sudeste 0 915.2 0.7 58
2019-08-04 01:00:00 22.2 10 Sudeste 13 Sudeste 0 915 1.2 50
2019-08-04 00:00:00 23.8 4 Sudeste 7 Sur 0 914.9 1.8 57
2019-08-03 23:00:00 26.9 7 Sudeste 28 Sudeste 0 914.5 1.7 46
2019-08-03 22:00:00 28.1 17 Este 35 Este 0 913.8 1 44
2019-08-03 21:00:00 30.2 13 Este 18 Este 0 913.1 -0.1 35
2019-08-03 20:00:00 32.2 5 Sudoeste 28 Este 0 912.8 -0.6 34
2019-08-03 19:00:00 32.9 23 Este 42 Este 0 912.8 -1.1 29
2019-08-03 18:00:00 34 12 Norte 32 Norte 0 913.2 -1.2 26
2019-08-03 17:00:00 34.2 14 Sudeste 26 Sudeste 0 913.4 -1.4 24
2019-08-03 16:00:00 33.7 8 Este 18 Sudeste 0 913.9 -1.6 26
2019-08-03 15:00:00 34.3 6 Sudoeste 16 Sur 0 914.4 -1.5 24
2019-08-03 14:00:00 33 4 Noroeste 9 Noroeste 0 914.8 -1.4 29
2019-08-03 13:00:00 31.2 4 Oeste 9 Noroeste 0 915.5 -1.1 30
2019-08-03 12:00:00 28.9 4 Oeste 10 Noroeste 0 915.9 -0.9 41
2019-08-03 11:00:00 25.9 4 Sudoeste 9 Oeste 0 916.2 -0.6 47
2019-08-03 10:00:00 22.3 3 Oeste 6 Sur 0 916.6 -0.2 57
2019-08-03 09:00:00 19.3 0 Calma 5 Sudeste 0 916.8 0.2 65
2019-08-03 08:00:00 15.6 0 Calma 5 Sur 0 916.8 0 76
2019-08-03 07:00:00 14.6 3 Este 3 Nordeste 0 916.8 -0.1 77
2019-08-03 06:00:00 15.3 0 Calma 6 Oeste 0 916.6 -0.6 74
2019-08-03 05:00:00 16.4 3 Sudoeste 5 Sudoeste 0 916.8 -0.6 71
2019-08-03 04:00:00 18 2 Sudoeste 15 Sudeste 0 916.9 -0.5 61
2019-08-03 03:00:00 17.8 3 Oeste 5 Oeste 0 917.2 0.1 63
2019-08-03 02:00:00 19.3 0 Calma 8 Sur 0 917.4 0.6 57
2019-08-03 01:00:00 20.4 3 Sudeste 5 Sudeste 0 917.4 1.2 54
2019-08-03 00:00:00 21.7 3 Nordeste 7 Norte 0 917.1 1.4 51
2019-08-02 23:00:00 23.8 3 Norte 18 Nordeste 0 916.8 1.5 45
2019-08-02 22:00:00 26.2 9 Este 21 Este 0 916.2 1.3 38
2019-08-02 21:00:00 27.8 15 Este 27 Este 0 915.7 0.7 35
2019-08-02 20:00:00 29.3 12 Nordeste 27 Norte 0 915.3 0 32
2019-08-02 19:00:00 30.5 11 Nordeste 30 Norte 0 914.9 -0.8 30
2019-08-02 18:00:00 31.3 9 Norte 30 Nordeste 0 915 -1 31
2019-08-02 17:00:00 31.9 11 Norte 24 Norte 0 915.3 -1.1 30
2019-08-02 16:00:00 32 8 Norte 18 Norte 0 915.7 -1.1 27
2019-08-02 15:00:00 31.6 7 Noroeste 20 Norte 0 916 -0.9 31
2019-08-02 14:00:00 30.4 6 Noroeste 17 Noroeste 0 916.4 -0.9 37
2019-08-02 13:00:00 28.3 5 Norte 12 Noroeste 0 916.8 -0.5 46
2019-08-02 12:00:00 26.1 5 Noroeste 12 Noroeste 0 916.9 -0.3 55
2019-08-02 11:00:00 23.3 4 Oeste 8 Oeste 0 917.3 0.5 61
2019-08-02 10:00:00 21.4 2 Nordeste 7 Nordeste 0 917.3 0.7 70
2019-08-02 09:00:00 18.8 2 Norte 8 Nordeste 0 917.2 0.7 79
2019-08-02 08:00:00 16.5 2 Norte 4 Nordeste 0 916.8 0.1 88
2019-08-02 07:00:00 15.6 3 Norte 9 Norte 0 916.6 -0.1 91
2019-08-02 06:00:00 16.1 4 Norte 8 Noroeste 0 916.5 0.1 91
2019-08-02 05:00:00 16.6 3 Noroeste 10 Noroeste 0 916.7 0.5 88
2019-08-02 04:00:00 17.1 3 Noroeste 13 Norte 0 916.7 0.6 87
2019-08-02 03:00:00 17.6 6 Norte 16 Noroeste 0 916.4 0.6 85
2019-08-02 02:00:00 18.6 5 Norte 19 Norte 0 916.2 0.7 81
2019-08-02 01:00:00 19.9 6 Noroeste 20 Norte 0 916.1 2 76
2019-08-02 00:00:00 21.9 10 Norte 22 Norte 0 915.8 2.7 68
2019-08-01 23:00:00 23.4 10 Norte 29 Noroeste 0 915.5 3.1 52
2019-08-01 22:00:00 25.9 8 Norte 27 Este 0 914.1 2 43
2019-08-01 21:00:00 28 15 Este 29 Este 0 913.1 1 38
2019-08-01 20:00:00 29.8 18 Este 33 Este 0 912.4 0.2 36
2019-08-01 19:00:00 31.4 22 Este 32 Este 0 912.1 -1 34
2019-08-01 18:00:00 33.1 7 Norte 19 Norte 0 912.1 -1.4 30
2019-08-01 17:00:00 33.2 6 Sur 17 Sur 0 912.2 -1.7 27
2019-08-01 16:00:00 31.7 6 Norte 17 Sudeste 0 913.1 -1.3 31
2019-08-01 15:00:00 31.8 5 Sur 11 Sudeste 0 913.5 -1.1 30
2019-08-01 14:00:00 29.6 4 Este 12 Este 0 913.9 -0.8 32
2019-08-01 13:00:00 28.7 3 Oeste 13 Oeste 0 914.4 -0.3 33
2019-08-01 12:00:00 26.9 6 Sudoeste 16 Oeste 0 914.6 0 37
2019-08-01 11:00:00 24.7 8 Oeste 18 Sudoeste 0 914.7 0.3 42
2019-08-01 10:00:00 22.4 6 Oeste 15 Oeste 0 914.7 0.4 49
2019-08-01 09:00:00 19.9 3 Sudoeste 13 Sudeste 0 914.6 0.1 71
2019-08-01 08:00:00 17.4 4 Sudeste 13 Sudeste 0 914.4 -0.3 80
2019-08-01 07:00:00 15.4 3 Sur 6 Sudeste 0 914.3 -0.7 87
2019-08-01 06:00:00 16.1 2 Noroeste 9 Este 0 914.5 -0.4 86
2019-08-01 05:00:00 17 3 Noroeste 6 Sur 0 914.7 -0.7 84
2019-08-01 04:00:00 17.9 0 Calma 8 Oeste 0 915 -0.7 81
2019-08-01 03:00:00 19.1 4 Este 9 Sudeste 0 914.9 -1 75
2019-08-01 02:00:00 19.8 4 Sur 9 Sur 0 915.4 -0.7 72
2019-08-01 01:00:00 20.2 4 Sur 9 Sudeste 0 915.7 0 71
2019-08-01 00:00:00 21.2 6 Este 11 Sudeste 0 915.9 0.6 68
2019-07-31 23:00:00 22.2 10 Sudeste 15 Este 0 916.1 1.2 64
2019-07-31 22:00:00 23.5 9 Sur 25 Sur 0 915.7 1.3 60
2019-07-31 21:00:00 25.1 13 Sur 32 Sur 0 915.3 1.1 55
2019-07-31 20:00:00 28 15 Sur 31 Sudeste 0 914.9 0.4 46
2019-07-31 19:00:00 29.9 20 Sudeste 33 Sudeste 0 914.4 -0.7 40
2019-07-31 18:00:00 31.6 20 Sudeste 37 Sudeste 0 914.2 -1.4 35
2019-07-31 17:00:00 30.8 21 Sudeste 35 Sudeste 0 914.5 -1.7 33
2019-07-31 16:00:00 31.4 15 Sudeste 32 Sudeste 0 915.1 -1.8 32
2019-07-31 15:00:00 30.1 16 Sudeste 36 Sudeste 0 915.6 -2.1 33
2019-07-31 14:00:00 29 10 Sur 22 Sudeste 0 916.2 -1.7 36
2019-07-31 13:00:00 25.6 14 Este 23 Este 0 916.9 -1.2 39
2019-07-31 12:00:00 23.3 14 Este 23 Este 0 917.7 -0.9 42
2019-07-31 11:00:00 20.8 5 Noroeste 15 Noroeste 0 917.9 -1.2 48
2019-07-31 10:00:00 18 5 Noroeste 12 Noroeste 0 918.1 -1.1 54
2019-07-31 09:00:00 15.5 6 Norte 13 Norte 0 918.6 -0.3 60
2019-07-31 08:00:00 13 4 Norte 9 Norte 0 919.1 0.2 69
2019-07-31 07:00:00 11.9 4 Norte 8 Norte 0 919.2 0.4 70
2019-07-31 06:00:00 12.4 4 Norte 10 Norte 0 918.9 -0.1 68
2019-07-31 05:00:00 12.8 3 Norte 7 Norte 0 918.9 -0.4 67
2019-07-31 04:00:00 13.2 4 Norte 9 Norte 0 918.8 -0.5 66
2019-07-31 03:00:00 14.1 4 Noroeste 10 Norte 0 919 -0.3 61
2019-07-31 02:00:00 14.2 4 Norte 14 Norte 0 919.3 0.7 60
2019-07-31 01:00:00 14.6 5 Norte 16 Norte 0 919.3 1.4 60
2019-07-31 00:00:00 15.5 5 Norte 29 Nordeste 0 919.3 2.2 56
2019-07-30 23:00:00 16.6 12 Norte 31 Norte 0 918.6 2.1 52
2019-07-30 22:00:00 18.1 17 Norte 32 Norte 0 917.9 1.8 49
2019-07-30 21:00:00 20.3 12 Norte 31 Norte 0 917.1 1.2 44
2019-07-30 20:00:00 22.7 16 Norte 30 Nordeste 0 916.5 0.4 38
2019-07-30 19:00:00 24.1 13 Norte 30 Noroeste 0 916.1 -0.3 37
2019-07-30 18:00:00 25.5 12 Norte 28 Nordeste 0 915.9 -0.9 36
2019-07-30 17:00:00 26.6 10 Norte 24 Norte 0 916.1 -1.3 36
2019-07-30 16:00:00 26.6 9 Noroeste 22 Noroeste 0 916.4 -1.3 39
2019-07-30 15:00:00 25.6 8 Noroeste 19 Este 0 916.8 -1.4 38
2019-07-30 14:00:00 23.7 9 Nordeste 21 Nordeste 0 917.4 -0.6 41
2019-07-30 13:00:00 22.4 6 Norte 20 Norte 0 917.7 -0.4 47
2019-07-30 12:00:00 20.6 7 Norte 18 Norte 0 918.2 0.4 54
2019-07-30 11:00:00 19.2 5 Noroeste 19 Norte 0 918 0.9 61
2019-07-30 10:00:00 17.7 10 Norte 19 Norte 0 918.1 1.4 66
2019-07-30 09:00:00 16.5 5 Norte 13 Norte 0 917.8 1.6 73
2019-07-30 08:00:00 13.8 4 Norte 9 Nordeste 0 917.1 1.3 84
2019-07-30 07:00:00 12.4 3 Norte 7 Noroeste 0 916.7 1.4 89
2019-07-30 06:00:00 13 3 Noroeste 8 Noroeste 0 916.2 1.1 86
2019-07-30 05:00:00 13.6 3 Norte 8 Noroeste 0 915.8 1 84
2019-07-30 04:00:00 14.7 2 Noroeste 8 Noroeste 0 915.3 0.6 81
2019-07-30 03:00:00 15.8 3 Norte 9 Norte 0 915.1 1.3 77
2019-07-30 02:00:00 17.2 4 Norte 13 Noroeste 0 914.8 2.2 73
2019-07-30 01:00:00 18.9 4 Norte 24 Norte 0 914.7 3.3 66
2019-07-30 00:00:00 21.1 11 Norte 30 Norte 0 913.8 2.7 57
2019-07-29 23:00:00 25.5 11 Noroeste 25 Oeste 0 912.6 1.9 29
2019-07-29 22:00:00 26.8 6 Oeste 17 Oeste 0 911.4 1 25
2019-07-29 21:00:00 28.8 8 Oeste 24 Oeste 0 911.1 0.5 23
2019-07-29 20:00:00 31.2 8 Oeste 33 Sudoeste 0 910.7 -0.2 21
2019-07-29 19:00:00 31.8 11 Oeste 31 Oeste 0 910.4 -0.8 22
2019-07-29 18:00:00 32.5 7 Noroeste 26 Oeste 0 910.6 -0.9 25
2019-07-29 17:00:00 32.4 10 Oeste 23 Oeste 0 910.9 -0.9 24
2019-07-29 16:00:00 31.1 10 Oeste 34 Oeste 0 911.2 -1.1 26
2019-07-29 15:00:00 30.3 9 Noroeste 30 Sudoeste 0 911.5 -1.1 28
2019-07-29 14:00:00 30.3 10 Oeste 32 Sudoeste 0 911.8 -1 30
2019-07-29 13:00:00 29.4 6 Sur 19 Sur 0 912.3 -0.7 31
2019-07-29 12:00:00 27.5 4 Sudeste 12 Este 0 912.6 -0.6 32
2019-07-29 11:00:00 24.7 5 Sur 12 Sur 0 912.8 -0.2 39
2019-07-29 10:00:00 21.1 4 Sur 9 Sudeste 0 913 0.3 50
2019-07-29 09:00:00 18.1 6 Sur 10 Sur 0 913.2 0.6 60
2019-07-29 08:00:00 14.7 7 Sudeste 9 Sudeste 0 913 0.6 73
2019-07-29 07:00:00 12.7 7 Sudeste 9 Sudeste 0 912.7 0.2 78
2019-07-29 06:00:00 11.9 6 Sudeste 10 Sudeste 0 912.6 -0.2 80
2019-07-29 05:00:00 12.3 4 Sur 8 Sudeste 0 912.4 -0.4 75
2019-07-29 04:00:00 13 0 Calma 6 Sudoeste 0 912.5 -0.3 77
2019-07-29 03:00:00 14 5 Sudeste 8 Oeste 0 912.8 0 70
2019-07-29 02:00:00 14.6 3 Norte 7 Norte 0 912.8 0 71
2019-07-29 01:00:00 16 4 Norte 10 Norte 0 912.8 1 65
2019-07-29 00:00:00 17.4 3 Norte 9 Norte 0 912.8 1.7 60
2019-07-28 23:00:00 19 4 Noroeste 8 Norte 0 912.8 2.1 55
2019-07-28 22:00:00 21.2 4 Norte 16 Nordeste 0 911.8 1.3 46
2019-07-28 21:00:00 24 6 Norte 14 Nordeste 0 911.1 0.4 33
2019-07-28 20:00:00 26.8 4 Noroeste 17 Norte 0 910.7 -0.4 29
2019-07-28 19:00:00 26.6 5 Norte 18 Norte 0 910.5 -1.2 27
2019-07-28 18:00:00 26.8 6 Norte 22 Norte 0 910.7 -1.4 25
2019-07-28 17:00:00 26.2 8 Norte 20 Norte 0 911.1 -1.5 31
2019-07-28 16:00:00 25.3 5 Norte 20 Noroeste 0 911.7 -1.3 32
2019-07-28 15:00:00 24.8 6 Sudeste 13 Nordeste 0 912.1 -1.5 35
2019-07-28 14:00:00 22.5 6 Nordeste 19 Norte 0 912.6 -1.1 41
2019-07-28 13:00:00 21.1 6 Noroeste 18 Norte 0 913 -0.5 47
2019-07-28 12:00:00 19.1 8 Norte 23 Noroeste 0 913.6 0.1 54
2019-07-28 11:00:00 17.6 9 Norte 21 Norte 0 913.7 0.3 61
2019-07-28 10:00:00 16.1 4 Noroeste 11 Noroeste 0 913.5 0.3 65
2019-07-28 09:00:00 14.6 5 Sur 11 Sur 0 913.5 0.7 72
2019-07-28 08:00:00 11.9 6 Sur 12 Sur 0 913.4 0.6 82
2019-07-28 07:00:00 9.6 6 Sudeste 12 Sur 0 913.2 0.6 89
2019-07-28 06:00:00 10 5 Sudeste 8 Sudeste 0 912.8 0.1 88
2019-07-28 05:00:00 10.7 4 Sur 10 Sudoeste 0 912.8 0.1 85
2019-07-28 04:00:00 11.3 5 Norte 7 Nordeste 0 912.6 0 87
2019-07-28 03:00:00 12.3 4 Norte 6 Norte 0 912.7 0.1 83
2019-07-28 02:00:00 13.2 3 Norte 16 Norte 0 912.7 0.5 80
2019-07-28 01:00:00 14.1 8 Norte 20 Nordeste 0 912.6 1.7 77
2019-07-28 00:00:00 14.8 5 Norte 21 Nordeste 0 912.6 2.8 77
2019-07-27 23:00:00 15.5 5 Norte 22 Norte 0 912.2 3.2 75
2019-07-26 12:00:00 25.3 5 Noroeste 21 Noroeste 0 913.8 -0.2 53
2019-07-26 11:00:00 22.7 8 Norte 18 Norte 0 912.9 -0.9 65
2019-07-26 10:00:00 22.4 5 Norte 18 Noroeste 0 914 0.8 69
2019-07-26 09:00:00 19.6 5 Noroeste 12 Oeste 0 914 0.8 77
2019-07-26 08:00:00 19 2 Noroeste 10 Noroeste 0 913.8 0.3 69
2019-07-26 07:00:00 17.9 4 Nordeste 9 Sur 0 913.2 -0.7 72
2019-07-26 06:00:00 19 3 Sur 11 Sudoeste 0 913.2 -1.1 67
2019-07-26 05:00:00 20.8 4 Sudoeste 11 Sudoeste 0 913.5 -0.9 59
2019-07-26 04:00:00 22 4 Sur 16 Sudeste 0 913.9 -0.6 51
2019-07-26 03:00:00 21.4 7 Sudeste 14 Sudeste 0 914.3 -0.6 58
2019-07-26 02:00:00 22.5 9 Sudeste 14 Sur 0 914.4 -0.7 56
2019-07-26 01:00:00 23 6 Sudoeste 18 Sur 0 914.5 -0.6 55
2019-07-26 00:00:00 22.8 4 Sudoeste 14 Sur 0 914.9 0.6 61
2019-07-25 23:00:00 23.1 10 Sudeste 28 Este 0 915.1 1.2 61
2019-07-25 22:00:00 24.6 10 Sudoeste 36 Este 0.2 915.1 1.5 54
2019-07-25 21:00:00 24.3 27 Este 36 Este 0 914.3 0.8 49
2019-07-25 20:00:00 26.3 9 Sur 42 Este 0 913.9 0.2 41
2019-07-25 19:00:00 30.9 26 Sudeste 44 Sudeste 0 913.6 -0.8 26
2019-07-25 18:00:00 33.4 15 Sudoeste 44 Sur 0 913.5 -1.5 23
2019-07-25 17:00:00 34.5 5 Sur 21 Sudeste 0 913.7 -1.2 18
2019-07-25 16:00:00 31.3 6 Sudoeste 31 Noroeste 0 914.4 -0.9 23
2019-07-25 15:00:00 30.6 13 Sudoeste 28 Oeste 0 915 -0.7 23
2019-07-25 14:00:00 31.3 18 Oeste 45 Oeste 0 914.9 -1.1 23
2019-07-25 13:00:00 33.3 5 Oeste 16 Sudoeste 0 915.3 -0.9 27
2019-07-25 12:00:00 31.4 4 Oeste 18 Oeste 0 915.7 -0.6 30
2019-07-25 11:00:00 29.3 13 Sudoeste 22 Oeste 0 916 -0.2 31
2019-07-25 10:00:00 26.9 2 Nordeste 8 Sudeste 0 916.2 0.1 31
2019-07-25 09:00:00 22.7 0 Calma 5 Norte 0 916.3 0.5 47
2019-07-25 08:00:00 17.9 3 Nordeste 8 Sudeste 0 916.2 0.2 64
2019-07-25 07:00:00 16.1 4 Nordeste 6 Norte 0 916.1 -0.2 67
2019-07-25 06:00:00 17.6 0 Calma 9 Sudeste 0 915.8 -0.8 61
2019-07-25 05:00:00 20 6 Sur 9 Sudeste 0 916 -0.9 47
2019-07-25 04:00:00 20.6 5 Sur 9 Sudeste 0 916.3 -0.7 46
2019-07-25 03:00:00 21.9 4 Sur 12 Sudeste 0 916.6 -0.4 42
2019-07-25 02:00:00 23.2 7 Sudeste 15 Sudeste 0 916.9 0.1 39
2019-07-25 01:00:00 24.6 10 Sudeste 17 Sur 0 917 1.2 36
2019-07-25 00:00:00 26.1 10 Sur 22 Sur 0 917 1.7 33
2019-07-24 23:00:00 25.7 4 Norte 17 Sur 0 916.8 1.8 36
2019-07-24 22:00:00 28.8 8 Sur 23 Sur 0 915.8 1 28
2019-07-24 21:00:00 30.8 12 Sur 30 Sur 0 915.3 0.2 24
2019-07-24 20:00:00 32.7 14 Sur 34 Sur 0 915 -0.7 20
2019-07-24 19:00:00 33.9 9 Sudoeste 20 Sudeste 0 914.8 -1.4 16
2019-07-24 18:00:00 34.8 12 Sudoeste 28 Sur 0 915.1 -1.6 15
2019-07-24 17:00:00 36.8 14 Sudoeste 32 Sudoeste 0 915.7 -1.7 15
2019-07-24 16:00:00 36.4 15 Sudoeste 32 Oeste 0 916.2 -1.7 17
2019-07-24 15:00:00 35.6 13 Sudoeste 33 Sudoeste 0 916.7 -1.6 17
2019-07-24 14:00:00 34.1 14 Sudoeste 31 Sudoeste 0 917.4 -1.2 20
2019-07-24 13:00:00 31.2 14 Sudoeste 23 Sudoeste 0 917.9 -0.7 27
2019-07-24 12:00:00 29.8 6 Oeste 20 Sudoeste 0 918.3 -0.4 33
2019-07-24 11:00:00 25.4 2 Este 10 Sudeste 0 918.6 0.2 43
2019-07-24 10:00:00 24 6 Sur 14 Sur 0 918.6 0.1 46
2019-07-24 09:00:00 21.9 4 Sur 13 Sur 0 918.7 0 47
2019-07-24 08:00:00 21.1 9 Sudeste 15 Sudeste 0 918.4 -0.3 48
2019-07-24 07:00:00 18.8 8 Sudeste 18 Este 0 918.5 -0.3 53
2019-07-24 06:00:00 18.2 4 Sudoeste 8 Sur 0 918.7 -0.6 62
2019-07-24 05:00:00 18.7 3 Nordeste 10 Sudoeste 0 918.7 -0.5 58
2019-07-24 04:00:00 20.1 2 Noroeste 6 Nordeste 0 918.8 -0.6 55
2019-07-24 03:00:00 21.1 4 Nordeste 9 Norte 0 919.3 -0.1 48
2019-07-24 02:00:00 21.9 8 Sudeste 13 Sur 0 919.2 0.3 43
2019-07-24 01:00:00 23.5 5 Este 12 Sur 0 919.4 1.3 38
2019-07-24 00:00:00 25 6 Sur 11 Sudoeste 0 919.4 2.1 33
2019-07-23 23:00:00 26.7 8 Sudoeste 20 Sudeste 0 918.9 2.3 29
2019-07-23 22:00:00 28.6 12 Sudeste 27 Sur 0 918.1 1.4 26
2019-07-23 21:00:00 31.4 16 Sur 31 Sur 0 917.3 0.6 22
2019-07-23 20:00:00 33.7 14 Sur 40 Sudoeste 0 916.6 -0.4 17
2019-07-23 19:00:00 34 16 Sur 36 Sur 0 916.7 -1 17
2019-07-23 18:00:00 36 15 Sur 35 Sur 0 916.7 -1.5 16
2019-07-23 17:00:00 37.3 17 Sur 29 Sudoeste 0 917 -1.7 16
2019-07-23 16:00:00 36.5 13 Sur 30 Sur 0 917.7 -1.6 16
2019-07-23 15:00:00 35.9 17 Sudoeste 37 Sudoeste 0 918.2 -1.5 15
2019-07-23 14:00:00 35.2 18 Sur 42 Sudoeste 0 918.7 -1.5 16
2019-07-23 13:00:00 33.6 11 Sur 27 Sur 0 919.3 -1.3 20
2019-07-23 12:00:00 32.2 9 Sur 26 Sur 0 919.7 -1.1 23
2019-07-23 11:00:00 27.9 5 Sudoeste 15 Sur 0 920.2 -0.5 31
2019-07-23 10:00:00 24.2 2 Noroeste 12 Sudoeste 0 920.6 0.7 41
2019-07-23 09:00:00 23.3 5 Sur 11 Sudeste 0 920.8 1 40
2019-07-23 08:00:00 17.5 5 Norte 14 Norte 0 920.7 0.7 57
2019-07-23 07:00:00 15.8 3 Norte 6 Sudoeste 0 919.9 -0.5 64
2019-07-23 06:00:00 16.8 3 Noroeste 9 Sudeste 0 919.8 -1.1 64
2019-07-23 05:00:00 18.5 6 Sudeste 9 Sudeste 0 920 -1.3 47
2019-07-23 04:00:00 19.6 3 Sur 10 Este 0 920.4 -1.1 49
2019-07-23 03:00:00 20.2 6 Sudeste 9 Sur 0 920.9 -0.5 41
2019-07-23 02:00:00 20.4 0 Calma 7 Sur 0 921.3 0.1 50
2019-07-23 01:00:00 21.7 5 Sur 7 Sur 0 921.5 0.8 43
2019-07-23 00:00:00 23 8 Sudeste 10 Sudeste 0 921.4 0.9 41
2019-07-22 23:00:00 26.2 6 Sur 19 Sur 0 921.2 1.1 33
2019-07-22 22:00:00 28 9 Sur 22 Sudeste 0 920.7 0.8 29
2019-07-22 21:00:00 30.4 10 Sur 29 Sudoeste 0 920.5 0.6 24
2019-07-22 20:00:00 32.9 15 Sur 40 Sudoeste 0 920.1 -0.3 20
2019-07-22 19:00:00 34.8 17 Sudoeste 36 Sudoeste 0 919.9 -1 16
2019-07-22 18:00:00 35.6 19 Sudoeste 37 Sur 0 919.9 -1.3 17
2019-07-22 17:00:00 35.9 17 Sudoeste 31 Oeste 0 920.4 -1.3 16
2019-07-22 16:00:00 35.5 17 Sur 33 Sudeste 0 920.9 -1.3 17
2019-07-22 15:00:00 35.2 13 Sur 30 Sudeste 0 921.2 -1.3 15
2019-07-22 14:00:00 31.7 10 Sur 40 Sudoeste 0 921.7 -1 17
2019-07-22 13:00:00 33.2 6 Sur 20 Sudeste 0 922.2 -0.6 17
2019-07-22 12:00:00 30 6 Oeste 12 Sudoeste 0 922.5 -0.4 27
2019-07-22 11:00:00 27.8 6 Sudoeste 11 Oeste 0 922.7 -0.2 30
2019-07-22 10:00:00 23.8 2 Oeste 9 Oeste 0 922.8 0 45
2019-07-22 09:00:00 20.7 4 Oeste 6 Oeste 0 922.9 0.2 61
2019-07-22 08:00:00 18.5 4 Sudeste 9 Sudeste 0 922.9 0.3 58
2019-07-22 07:00:00 16.7 5 Sudeste 9 Sudeste 0 922.8 0.1 55
2019-07-22 06:00:00 17.8 5 Sur 9 Sur 0 922.7 -0.2 52
2019-07-22 05:00:00 18.3 5 Sudeste 9 Sur 0 922.6 -0.7 57
2019-07-22 04:00:00 19.8 6 Sudeste 10 Sudeste 0 922.7 -0.3 46
2019-07-22 03:00:00 20.4 8 Sudeste 10 Sudeste 0 922.9 0.5 49
2019-07-22 02:00:00 21.6 0 Calma 12 Norte 0 923.3 1.7 52
2019-07-22 01:00:00 23.1 5 Norte 11 Sur 0 923 2.5 45
2019-07-22 00:00:00 24.7 8 Sudeste 12 Sur 0 922.4 2.6 40
2019-07-21 23:00:00 26.4 9 Sur 20 Sur 0 921.6 2.1 37
2019-07-21 22:00:00 27.5 10 Sur 23 Sudeste 0 920.5 1.1 35
2019-07-21 21:00:00 30 13 Sur 28 Sur 0 919.8 0.4 33
2019-07-21 20:00:00 31.4 8 Sudoeste 19 Sudoeste 0 919.5 0.4 34
2019-07-21 19:00:00 33.8 10 Sudoeste 24 Sudoeste 0 919.4 0.1 28
2019-07-21 18:00:00 33 14 Sudoeste 25 Sudoeste 0 919.4 -0.3 29
2019-07-21 17:00:00 34.9 12 Sur 27 Sur 0 919.1 -1 24
2019-07-21 16:00:00 35.5 13 Sudeste 23 Sudeste 0 919.3 -1.2 23
2019-07-21 15:00:00 34.4 13 Sudeste 29 Sur 0 919.7 -0.9 25
2019-07-21 14:00:00 34.1 11 Sur 26 Sur 0 920.1 -0.5 23
2019-07-21 13:00:00 32.7 10 Sur 27 Sudoeste 0 920.5 -0.4 26
2019-07-21 12:00:00 30.9 12 Sur 25 Sur 0 920.6 -0.2 28
2019-07-21 11:00:00 27.4 3 Sudoeste 7 Sudoeste 0 920.6 0 41
2019-07-21 10:00:00 23.6 2 Noroeste 5 Noroeste 0 920.9 0.9 51
2019-07-21 09:00:00 21.6 3 Noroeste 7 Noroeste 0 920.8 1.3 61
2019-07-21 08:00:00 19 3 Norte 7 Noroeste 0 920.6 1 64
2019-07-21 07:00:00 19.1 3 Oeste 10 Sur 0 920 0.3 57
2019-07-21 06:00:00 20.8 8 Sudeste 14 Sudeste 0 919.5 0 48
2019-07-21 05:00:00 20.4 5 Sudeste 11 Sudeste 0 919.6 0.8 55
2019-07-21 04:00:00 21.6 4 Nordeste 9 Este 0 919.7 0.9 50
2019-07-21 03:00:00 23.1 3 Nordeste 21 Sur 0 919.5 1.2 43
2019-07-21 02:00:00 23.8 11 Sur 35 Sur 0 918.8 1 43
2019-07-21 01:00:00 24.8 15 Sur 33 Sur 0 918.8 2.4 44
2019-07-21 00:00:00 25.9 12 Sur 35 Sudoeste 0 918.3 2.6 41